createdAt,value
2018-08-28T00:02:13.307Z,1.60
2018-08-28T00:04:42.728Z,1.90
2018-08-28T00:07:11.825Z,1.60
2018-08-28T00:09:41.118Z,1.53
2018-08-28T00:12:10.126Z,1.70
2018-08-28T00:14:39.439Z,1.70
2018-08-28T00:17:08.600Z,1.93
2018-08-28T00:19:37.667Z,1.30
2018-08-28T00:22:06.713Z,1.80
2018-08-28T00:24:35.800Z,1.60
2018-08-28T00:27:04.938Z,1.63
2018-08-28T00:29:33.947Z,1.40
2018-08-28T00:32:03.257Z,1.40
2018-08-28T00:34:33.531Z,1.40
2018-08-28T00:37:02.505Z,1.70
2018-08-28T00:39:31.895Z,1.50
2018-08-28T00:42:00.909Z,1.50
2018-08-28T00:44:30.270Z,1.33
2018-08-28T00:46:59.812Z,1.60
2018-08-28T00:49:29.224Z,1.40
2018-08-28T00:51:58.259Z,1.70
2018-08-28T00:54:27.417Z,1.43
2018-08-28T00:56:56.571Z,1.70
2018-08-28T00:59:25.723Z,1.40
2018-08-28T01:01:55.011Z,1.30
2018-08-28T01:04:24.433Z,1.40
2018-08-28T01:06:53.589Z,1.40
2018-08-28T01:09:22.938Z,1.30
2018-08-28T01:11:52.185Z,1.40
2018-08-28T01:14:21.178Z,1.53
2018-08-28T01:16:50.710Z,1.40
2018-08-28T01:19:19.744Z,1.60
2018-08-28T01:21:48.664Z,1.43
2018-08-28T01:24:17.863Z,1.40
2018-08-28T01:26:47.018Z,1.60
2018-08-28T01:29:16.215Z,1.63
2018-08-28T01:31:45.401Z,1.50
2018-08-28T01:34:14.595Z,1.50
2018-08-28T01:36:43.903Z,1.60
2018-08-28T01:39:12.996Z,1.30
2018-08-28T01:41:42.251Z,1.60
2018-08-28T01:44:11.490Z,1.70
2018-08-28T01:46:40.803Z,1.40
2018-08-28T01:49:09.835Z,1.40
2018-08-28T01:51:39.046Z,1.57
2018-08-28T01:54:08.176Z,1.60
2018-08-28T01:56:37.367Z,1.70
2018-08-28T01:59:06.433Z,1.60
2018-08-28T02:01:35.730Z,1.50
2018-08-28T02:04:04.691Z,1.90
2018-08-28T02:06:34.032Z,1.80
2018-08-28T02:09:03.810Z,1.57
2018-08-28T02:11:32.930Z,1.93
2018-08-28T02:14:02.241Z,1.70
2018-08-28T02:16:31.443Z,1.50
2018-08-28T02:19:00.951Z,1.60
2018-08-28T02:21:30.029Z,2.00
2018-08-28T02:23:59.123Z,1.67
2018-08-28T02:26:28.787Z,1.40
2018-08-28T02:28:58.056Z,1.80
2018-08-28T02:31:27.321Z,2.03
2018-08-28T02:33:56.303Z,2.00
2018-08-28T02:36:25.418Z,1.90
2018-08-28T02:38:54.623Z,1.97
2018-08-28T02:41:23.545Z,2.10
2018-08-28T02:43:52.530Z,1.80
2018-08-28T02:46:21.748Z,2.17
2018-08-28T02:48:50.871Z,2.10
2018-08-28T02:51:19.827Z,2.13
2018-08-28T02:53:49.758Z,2.13
2018-08-28T02:56:19.106Z,2.17
2018-08-28T02:58:48.307Z,1.97
2018-08-28T03:01:17.439Z,2.20
2018-08-28T03:03:46.672Z,2.10
2018-08-28T03:06:16.075Z,2.60
2018-08-28T03:08:45.666Z,2.00
2018-08-28T03:11:14.727Z,2.20
2018-08-28T03:13:44.196Z,2.20
2018-08-28T03:16:13.630Z,2.20
2018-08-28T03:18:42.727Z,2.37
2018-08-28T03:21:11.878Z,2.30
2018-08-28T03:23:41.123Z,2.03
2018-08-28T03:26:10.315Z,2.20
2018-08-28T03:28:39.447Z,2.37
2018-08-28T03:31:08.462Z,2.73
2018-08-28T03:33:37.694Z,2.50
2018-08-28T03:36:07.236Z,2.60
2018-08-28T03:38:36.584Z,2.60
2018-08-28T03:41:05.799Z,2.13
2018-08-28T03:43:34.909Z,2.73
2018-08-28T03:46:03.832Z,2.53
2018-08-28T03:48:33.187Z,2.67
2018-08-28T03:51:02.372Z,2.70
2018-08-28T03:53:31.734Z,2.93
2018-08-28T03:56:01.131Z,2.77
2018-08-28T03:58:30.019Z,3.00
2018-08-28T04:00:59.173Z,3.00
2018-08-28T04:03:28.545Z,3.13
2018-08-28T04:05:58.036Z,2.80
2018-08-28T04:08:27.548Z,2.87
2018-08-28T04:10:56.522Z,2.67
2018-08-28T04:13:25.560Z,2.80
2018-08-28T04:15:54.553Z,2.90
2018-08-28T04:18:23.590Z,3.40
2018-08-28T04:20:52.759Z,3.27
2018-08-28T04:23:22.474Z,3.10
2018-08-28T04:25:51.758Z,3.40
2018-08-28T04:28:20.652Z,3.60
2018-08-28T04:30:49.783Z,3.30
2018-08-28T04:33:18.815Z,3.30
2018-08-28T04:35:48.153Z,3.17
2018-08-28T04:38:17.639Z,3.60
2018-08-28T04:40:46.775Z,3.50
2018-08-28T04:43:15.920Z,3.37
2018-08-28T04:45:45.003Z,3.07
2018-08-28T04:48:13.947Z,3.57
2018-08-28T04:50:43.044Z,3.77
2018-08-28T04:53:12.512Z,3.33
2018-08-28T04:55:41.867Z,3.27
2018-08-28T04:58:10.903Z,3.47
2018-08-28T05:00:39.954Z,4.00
2018-08-28T05:03:09.466Z,3.90
2018-08-28T05:05:38.497Z,3.70
2018-08-28T05:08:07.937Z,3.70
2018-08-28T05:10:37.165Z,3.60
2018-08-28T05:13:06.397Z,3.93
2018-08-28T05:15:35.394Z,3.67
2018-08-28T05:18:04.863Z,3.77
2018-08-28T05:20:33.919Z,3.70
2018-08-28T05:23:03.169Z,3.57
2018-08-28T05:25:32.272Z,3.90
2018-08-28T05:28:01.906Z,3.87
2018-08-28T05:30:31.571Z,4.30
2018-08-28T05:33:00.919Z,3.53
2018-08-28T05:35:30.740Z,3.70
2018-08-28T05:37:59.734Z,4.03
2018-08-28T05:40:28.900Z,4.03
2018-08-28T05:42:57.991Z,3.77
2018-08-28T05:45:27.387Z,4.10
2018-08-28T05:47:56.792Z,4.57
2018-08-28T05:50:26.090Z,3.67
2018-08-28T05:52:55.305Z,4.10
2018-08-28T05:55:24.576Z,4.03
2018-08-28T05:57:53.785Z,4.07
2018-08-28T06:00:22.916Z,3.60
2018-08-28T06:02:52.178Z,3.80
2018-08-28T06:05:21.879Z,3.17
2018-08-28T06:07:50.922Z,3.60
2018-08-28T06:10:20.001Z,3.90
2018-08-28T06:12:49.262Z,3.83
2018-08-28T06:15:18.515Z,3.83
2018-08-28T06:17:47.909Z,3.70
2018-08-28T06:20:16.979Z,3.90
2018-08-28T06:22:46.041Z,4.00
2018-08-28T06:25:15.197Z,3.83
2018-08-28T06:27:44.067Z,4.10
2018-08-28T06:30:13.833Z,3.90
2018-08-28T06:32:43.078Z,3.70
2018-08-28T06:35:12.263Z,4.20
2018-08-28T06:37:41.661Z,4.00
2018-08-28T06:40:10.683Z,3.83
2018-08-28T06:42:39.885Z,3.90
2018-08-28T06:45:09.515Z,3.80
2018-08-28T06:47:38.790Z,4.33
2018-08-28T06:50:09.762Z,4.00
2018-08-28T06:52:39.143Z,3.70
2018-08-28T06:55:08.329Z,4.10
2018-08-28T06:57:38.083Z,4.00
2018-08-28T07:00:07.867Z,3.87
2018-08-28T07:02:37.717Z,3.70
2018-08-28T07:05:07.191Z,3.40
2018-08-28T07:07:36.490Z,3.80
2018-08-28T07:10:05.650Z,3.90
2018-08-28T07:12:34.735Z,3.83
2018-08-28T07:15:04.048Z,3.70
2018-08-28T07:17:33.592Z,4.47
2018-08-28T07:20:02.482Z,4.30
2018-08-28T07:22:31.719Z,3.93
2018-08-28T07:25:00.765Z,3.13
2018-08-28T07:27:30.051Z,4.10
2018-08-28T07:29:59.271Z,3.77
2018-08-28T07:32:28.694Z,3.57
2018-08-28T07:34:57.788Z,4.27
2018-08-28T07:37:26.715Z,3.43
2018-08-28T07:39:55.735Z,3.30
2018-08-28T07:42:24.749Z,3.83
2018-08-28T07:44:53.815Z,3.50
2018-08-28T07:47:23.021Z,3.37
2018-08-28T07:49:52.326Z,3.40
2018-08-28T07:52:21.311Z,3.13
2018-08-28T07:54:50.291Z,3.60
2018-08-28T07:57:19.393Z,3.57
2018-08-28T07:59:49.223Z,4.07
2018-08-28T08:02:18.519Z,3.13
2018-08-28T08:04:47.608Z,3.70
2018-08-28T08:07:16.785Z,3.50
2018-08-28T08:09:45.718Z,3.87
2018-08-28T08:12:15.117Z,4.03
2018-08-28T08:14:44.103Z,3.47
2018-08-28T08:17:13.514Z,3.67
2018-08-28T08:19:42.763Z,3.20
2018-08-28T08:22:12.092Z,3.00
2018-08-28T08:24:41.140Z,3.67
2018-08-28T08:27:10.295Z,3.37
2018-08-28T08:29:39.313Z,3.13
2018-08-28T08:32:08.494Z,3.43
2018-08-28T08:34:37.904Z,3.33
2018-08-28T08:37:06.991Z,3.87
2018-08-28T08:39:35.951Z,3.63
2018-08-28T08:42:05.352Z,3.20
2018-08-28T08:44:34.987Z,3.17
2018-08-28T08:47:04.178Z,3.03
2018-08-28T08:49:33.371Z,3.10
2018-08-28T08:52:02.772Z,3.00
2018-08-28T08:54:32.315Z,3.03
2018-08-28T08:57:01.276Z,2.73
2018-08-28T08:59:30.295Z,2.47
2018-08-28T09:02:00.131Z,3.10
2018-08-28T09:04:29.150Z,2.80
2018-08-28T09:06:58.573Z,3.43
2018-08-28T09:09:28.131Z,3.10
2018-08-28T09:11:57.443Z,2.83
2018-08-28T09:14:26.868Z,2.80
2018-08-28T09:16:56.267Z,2.97
2018-08-28T09:19:25.276Z,3.00
2018-08-28T09:21:54.291Z,2.70
2018-08-28T09:24:23.509Z,2.83
2018-08-28T09:26:52.829Z,2.83
2018-08-28T09:29:21.986Z,2.80
2018-08-28T09:31:51.251Z,2.97
2018-08-28T09:34:20.535Z,2.83
2018-08-28T09:36:49.588Z,2.47
2018-08-28T09:39:18.847Z,2.80
2018-08-28T09:41:47.871Z,2.57
2018-08-28T09:44:17.084Z,2.80
2018-08-28T09:46:46.727Z,2.80
2018-08-28T09:49:15.751Z,2.67
2018-08-28T09:51:44.768Z,3.43
2018-08-28T09:54:14.079Z,2.60
2018-08-28T09:56:43.299Z,2.83
2018-08-28T09:59:12.318Z,2.80
2018-08-28T10:01:44.700Z,2.80
2018-08-28T10:04:14.483Z,2.90
2018-08-28T10:06:43.675Z,2.77
2018-08-28T10:09:15.846Z,2.80
2018-08-28T10:11:45.227Z,3.47
2018-08-28T10:14:14.335Z,3.03
2018-08-28T10:16:43.678Z,2.57
2018-08-28T10:19:12.883Z,2.93
2018-08-28T10:21:42.193Z,2.63
2018-08-28T10:24:12.386Z,2.80
2018-08-28T10:26:41.312Z,2.90
2018-08-28T10:29:10.414Z,3.43
2018-08-28T10:31:39.714Z,3.10
2018-08-28T10:34:08.624Z,2.83
2018-08-28T10:36:38.034Z,2.97
2018-08-28T10:39:08.704Z,3.00
2018-08-28T10:41:39.528Z,3.00
2018-08-28T10:44:08.879Z,3.00
2018-08-28T10:46:38.323Z,2.90
2018-08-28T10:49:07.283Z,2.83
2018-08-28T10:51:36.427Z,3.30
2018-08-28T10:54:05.841Z,2.80
2018-08-28T10:56:34.884Z,3.60
2018-08-28T10:59:03.938Z,3.33
2018-08-28T11:01:33.163Z,2.90
2018-08-28T11:04:02.046Z,2.60
2018-08-28T11:06:31.233Z,2.98
2018-08-28T11:09:00.447Z,2.80
2018-08-28T11:11:29.430Z,2.97
2018-08-28T11:13:58.663Z,2.87
2018-08-28T11:16:27.896Z,3.03
2018-08-28T11:18:57.219Z,3.10
2018-08-28T11:21:26.607Z,2.70
2018-08-28T11:23:55.666Z,2.77
2018-08-28T11:26:25.026Z,3.00
2018-08-28T11:28:54.260Z,2.60
2018-08-28T11:31:23.583Z,2.57
2018-08-28T11:33:53.117Z,3.00
2018-08-28T11:36:22.375Z,2.97
2018-08-28T11:38:51.620Z,3.23
2018-08-28T11:41:20.735Z,2.90
2018-08-28T11:43:49.769Z,2.83
2018-08-28T11:46:19.054Z,3.27
2018-08-28T11:48:48.221Z,3.23
2018-08-28T11:51:17.539Z,3.00
2018-08-28T11:53:46.523Z,3.03
2018-08-28T11:56:15.547Z,3.10
2018-08-28T11:58:44.576Z,3.07
2018-08-28T12:01:13.623Z,3.60
2018-08-28T12:03:42.653Z,3.50
2018-08-28T12:06:11.867Z,3.37
2018-08-28T12:08:40.935Z,3.10
2018-08-28T12:11:10.684Z,3.27
2018-08-28T12:13:40.028Z,3.07
2018-08-28T12:16:09.153Z,2.90
2018-08-28T12:18:38.705Z,2.87
2018-08-28T12:21:07.736Z,3.40
2018-08-28T12:23:36.784Z,3.33
2018-08-28T12:26:06.083Z,3.50
2018-08-28T12:28:35.315Z,3.00
2018-08-28T12:31:04.728Z,3.07
2018-08-28T12:33:33.967Z,3.53
2018-08-28T12:36:03.230Z,3.00
2018-08-28T12:38:32.162Z,3.07
2018-08-28T12:41:01.155Z,3.40
2018-08-28T12:43:30.479Z,3.03
2018-08-28T12:45:59.559Z,3.40
2018-08-28T12:48:28.747Z,3.20
2018-08-28T12:50:58.047Z,3.10
2018-08-28T12:53:27.378Z,3.60
2018-08-28T12:55:56.504Z,3.60
2018-08-28T12:58:26.023Z,3.40
2018-08-28T13:00:54.908Z,3.60
2018-08-28T13:03:24.084Z,3.07
2018-08-28T13:05:53.665Z,3.27
2018-08-28T13:08:23.227Z,2.97
2018-08-28T13:10:52.521Z,3.00
2018-08-28T13:13:21.756Z,3.53
2018-08-28T13:15:50.983Z,3.60
2018-08-28T13:18:20.050Z,3.70
2018-08-28T13:20:49.393Z,2.97
2018-08-28T13:23:18.451Z,3.20
2018-08-28T13:25:47.593Z,3.20
2018-08-28T13:28:17.193Z,3.33
2018-08-28T13:30:47.323Z,3.13
2018-08-28T13:33:16.466Z,2.70
2018-08-28T13:35:45.619Z,3.27
2018-08-28T13:38:14.749Z,2.70
2018-08-28T13:40:44.042Z,2.90
2018-08-28T13:43:13.355Z,2.67
2018-08-28T13:45:42.438Z,2.60
2018-08-28T13:48:11.811Z,2.70
2018-08-28T13:50:40.978Z,2.90
2018-08-28T13:53:10.379Z,2.67
2018-08-28T13:55:39.554Z,3.03
2018-08-28T13:58:08.687Z,3.10
2018-08-28T14:00:37.962Z,2.80
2018-08-28T14:03:08.519Z,2.80
2018-08-28T14:05:37.852Z,3.00
2018-08-28T14:08:07.083Z,2.53
2018-08-28T14:10:36.067Z,2.90
2018-08-28T14:13:05.136Z,3.30
2018-08-28T14:15:34.365Z,2.57
2018-08-28T14:18:03.316Z,3.10
2018-08-28T14:20:32.428Z,3.10
2018-08-28T14:23:07.435Z,2.83
2018-08-28T14:25:38.452Z,2.90
2018-08-28T14:28:07.935Z,2.77
2018-08-28T14:30:37.213Z,3.10
2018-08-28T14:33:06.343Z,2.70
2018-08-28T14:35:35.432Z,2.73
2018-08-28T14:38:05.496Z,2.50
2018-08-28T14:40:34.690Z,3.37
2018-08-28T14:43:05.027Z,2.83
2018-08-28T14:45:34.179Z,3.10
2018-08-28T14:48:05.069Z,2.87
2018-08-28T14:50:34.674Z,2.73
2018-08-28T14:53:03.711Z,3.30
2018-08-28T14:55:32.718Z,2.80
2018-08-28T14:58:02.017Z,2.87
2018-08-28T15:00:31.461Z,3.07
2018-08-28T15:03:01.927Z,3.13
2018-08-28T15:05:32.519Z,3.07
2018-08-28T15:08:01.532Z,3.15
2018-08-28T15:10:30.740Z,2.73
2018-08-28T15:13:00.335Z,2.60
2018-08-28T15:15:29.438Z,2.80
2018-08-28T15:17:59.948Z,3.10
2018-08-28T15:20:30.164Z,2.90
2018-08-28T15:22:59.582Z,2.70
2018-08-28T15:25:28.664Z,3.23
2018-08-28T15:27:57.936Z,2.80
2018-08-28T15:30:27.333Z,3.37
2018-08-28T15:33:00.420Z,3.70
2018-08-28T15:35:29.547Z,3.27
2018-08-28T15:37:59.263Z,3.20
2018-08-28T15:40:28.668Z,3.00
2018-08-28T15:42:57.766Z,3.43
2018-08-28T15:45:27.327Z,3.33
2018-08-28T15:47:56.559Z,3.00
2018-08-28T15:50:25.899Z,3.03
2018-08-28T15:52:55.223Z,3.50
2018-08-28T15:55:24.284Z,3.17
2018-08-28T15:57:53.468Z,3.43
2018-08-28T16:00:22.485Z,3.20
2018-08-28T16:02:51.791Z,3.40
2018-08-28T16:05:20.924Z,2.80
2018-08-28T16:07:50.123Z,3.37
2018-08-28T16:10:19.129Z,3.23
2018-08-28T16:12:48.432Z,3.17
2018-08-28T16:15:17.763Z,3.30
2018-08-28T16:17:47.926Z,3.23
2018-08-28T16:20:17.463Z,3.33
2018-08-28T16:22:54.965Z,3.10
2018-08-28T16:25:24.047Z,3.40
2018-08-28T16:27:53.199Z,3.43
2018-08-28T16:30:22.831Z,3.60
2018-08-28T16:32:52.630Z,3.43
2018-08-28T16:35:23.139Z,3.60
2018-08-28T16:37:52.469Z,4.07
2018-08-28T16:40:21.863Z,3.27
2018-08-28T16:42:52.176Z,3.50
2018-08-28T16:45:21.691Z,3.20
2018-08-28T16:47:50.862Z,3.67
2018-08-28T16:50:19.942Z,3.43
2018-08-28T16:52:49.395Z,3.57
2018-08-28T16:55:18.491Z,3.27
2018-08-28T16:57:48.276Z,3.93
2018-08-28T17:00:17.470Z,3.73
2018-08-28T17:02:46.659Z,3.30
2018-08-28T17:05:15.655Z,3.00
2018-08-28T17:07:45.738Z,3.30
2018-08-28T17:10:15.109Z,3.37
2018-08-28T17:12:45.536Z,3.57
2018-08-28T17:15:15.247Z,3.77
2018-08-28T17:17:44.658Z,3.62
2018-08-28T17:20:13.895Z,3.50
2018-08-28T17:22:43.043Z,4.20
2018-08-28T17:25:12.739Z,3.73
2018-08-28T17:27:42.857Z,4.10
2018-08-28T17:30:12.191Z,3.93
2018-08-28T17:32:41.581Z,3.73
2018-08-28T17:35:11.311Z,3.70
2018-08-28T17:37:40.315Z,4.40
2018-08-28T17:40:09.299Z,4.40
2018-08-28T17:42:38.537Z,3.63
2018-08-28T17:45:07.823Z,3.33
2018-08-28T17:47:37.188Z,3.80
2018-08-28T17:50:06.725Z,3.97
2018-08-28T17:52:35.849Z,4.30
2018-08-28T17:55:05.011Z,3.60
2018-08-28T17:57:34.052Z,3.73
2018-08-28T18:00:03.179Z,3.70
2018-08-28T18:02:32.377Z,3.80
2018-08-28T18:05:01.493Z,3.80
2018-08-28T18:07:30.648Z,3.57
2018-08-28T18:09:59.720Z,3.07
2018-08-28T18:12:29.103Z,3.90
2018-08-28T18:14:58.403Z,3.47
2018-08-28T18:17:27.571Z,3.70
2018-08-28T18:19:56.587Z,3.50
2018-08-28T18:22:25.830Z,3.50
2018-08-28T18:24:54.922Z,3.90
2018-08-28T18:27:24.143Z,3.63
2018-08-28T18:29:53.432Z,3.10
2018-08-28T18:32:22.496Z,3.23
2018-08-28T18:34:51.805Z,3.40
2018-08-28T18:37:20.894Z,3.30
2018-08-28T18:39:50.275Z,3.40
2018-08-28T18:42:19.343Z,3.30
2018-08-28T18:44:48.795Z,2.87
2018-08-28T18:47:18.517Z,3.00
2018-08-28T18:49:47.545Z,3.33
2018-08-28T18:52:16.560Z,3.30
2018-08-28T18:54:45.961Z,3.43
2018-08-28T18:57:15.285Z,3.40
2018-08-28T18:59:45.260Z,3.90
2018-08-28T19:02:14.381Z,3.63
2018-08-28T19:04:43.426Z,3.87
2018-08-28T19:07:12.758Z,3.67
2018-08-28T19:09:42.085Z,3.53
2018-08-28T19:12:11.258Z,3.47
2018-08-28T19:14:40.759Z,3.30
2018-08-28T19:17:10.188Z,3.60
2018-08-28T19:19:39.528Z,3.67
2018-08-28T19:22:09.254Z,3.90
2018-08-28T19:24:39.023Z,3.90
2018-08-28T19:27:09.245Z,3.77
2018-08-28T19:29:38.941Z,3.73
2018-08-28T19:32:08.268Z,4.00
2018-08-28T19:34:37.858Z,3.67
2018-08-28T19:37:07.065Z,4.23
2018-08-28T19:39:36.738Z,4.20
2018-08-28T19:42:05.816Z,3.90
2018-08-28T19:44:36.034Z,3.90
2018-08-28T19:47:05.822Z,3.93
2018-08-28T19:49:35.286Z,3.83
2018-08-28T19:52:04.545Z,3.80
2018-08-28T19:54:35.098Z,3.60
2018-08-28T19:57:05.227Z,3.97
2018-08-28T19:59:34.922Z,3.77
2018-08-28T20:02:04.623Z,3.60
2018-08-28T20:04:34.008Z,3.87
2018-08-28T20:07:03.196Z,4.20
2018-08-28T20:09:33.213Z,5.50
2018-08-28T20:12:02.539Z,5.00
2018-08-28T20:14:32.114Z,3.87
2018-08-28T20:17:01.238Z,4.67
2018-08-28T20:19:30.998Z,4.30
2018-08-28T20:22:00.443Z,4.47
2018-08-28T20:24:29.922Z,4.40
2018-08-28T20:26:59.233Z,3.90
2018-08-28T20:29:28.462Z,4.27
2018-08-28T20:31:57.866Z,3.67
2018-08-28T20:34:27.210Z,3.83
2018-08-28T20:36:56.649Z,3.73
2018-08-28T20:39:25.922Z,4.13
2018-08-28T20:41:55.517Z,4.60
2018-08-28T20:44:24.979Z,3.70
2018-08-28T20:46:54.068Z,3.40
2018-08-28T20:49:23.243Z,3.40
2018-08-28T20:51:52.640Z,4.20
2018-08-28T20:54:22.383Z,4.00
2018-08-28T20:56:51.773Z,3.93
2018-08-28T20:59:22.014Z,4.17
2018-08-28T21:01:51.277Z,3.80
2018-08-28T21:04:20.675Z,3.73
2018-08-28T21:06:49.979Z,3.40
2018-08-28T21:09:18.964Z,4.10
2018-08-28T21:11:48.182Z,3.50
2018-08-28T21:14:17.280Z,3.40
2018-08-28T21:16:46.425Z,3.70
2018-08-28T21:19:15.651Z,3.50
2018-08-28T21:21:45.003Z,3.80
2018-08-28T21:24:14.291Z,3.60
2018-08-28T21:26:43.662Z,3.37
2018-08-28T21:29:12.739Z,3.93
2018-08-28T21:31:42.015Z,3.90
2018-08-28T21:34:11.323Z,3.50
2018-08-28T21:36:40.664Z,3.50
2018-08-28T21:39:09.910Z,3.40
2018-08-28T21:41:39.075Z,3.67
2018-08-28T21:44:08.570Z,3.93
2018-08-28T21:46:37.799Z,3.50
2018-08-28T21:49:07.917Z,3.73
2018-08-28T21:51:37.186Z,2.93
2018-08-28T21:54:06.351Z,3.33
2018-08-28T21:56:35.500Z,3.50
2018-08-28T21:59:04.720Z,3.53
2018-08-28T22:01:34.083Z,3.50
2018-08-28T22:04:03.547Z,3.57
2018-08-28T22:06:38.119Z,3.27
2018-08-28T22:09:07.310Z,3.63
2018-08-28T22:11:36.591Z,3.60
2018-08-28T22:14:06.459Z,3.53
2018-08-28T22:16:35.438Z,3.27
2018-08-28T22:19:04.534Z,3.67
2018-08-28T22:21:33.619Z,3.23
2018-08-28T22:24:02.760Z,3.50
2018-08-28T22:26:32.151Z,3.20
2018-08-28T22:29:01.190Z,3.17
2018-08-28T22:31:30.399Z,3.40
2018-08-28T22:33:59.624Z,3.30
2018-08-28T22:36:29.078Z,3.20
2018-08-28T22:38:58.429Z,3.13
2018-08-28T22:41:27.679Z,3.60
2018-08-28T22:43:56.932Z,3.80
2018-08-28T22:46:26.279Z,3.37
2018-08-28T22:48:55.564Z,3.20
2018-08-28T22:51:24.485Z,3.43
2018-08-28T22:53:53.546Z,2.90
2018-08-28T22:56:22.827Z,3.40
2018-08-28T22:58:51.899Z,3.17
2018-08-28T23:01:21.296Z,2.83
2018-08-28T23:03:50.371Z,3.00
2018-08-28T23:06:20.052Z,2.50
2018-08-28T23:08:48.943Z,3.00
2018-08-28T23:11:18.320Z,2.60
2018-08-28T23:13:47.287Z,2.77
2018-08-28T23:16:16.519Z,2.50
2018-08-28T23:18:45.531Z,2.70
2018-08-28T23:21:14.627Z,2.40
2018-08-28T23:23:43.518Z,2.63
2018-08-28T23:26:12.899Z,2.50
2018-08-28T23:28:41.979Z,2.80
2018-08-28T23:31:11.144Z,2.53
2018-08-28T23:33:40.111Z,2.40
2018-08-28T23:36:09.565Z,2.90
2018-08-28T23:38:38.771Z,2.23
2018-08-28T23:41:07.756Z,2.50
2018-08-28T23:43:37.134Z,2.80
2018-08-28T23:46:06.441Z,2.50
2018-08-28T23:48:35.475Z,2.53
2018-08-28T23:51:04.807Z,2.73
2018-08-28T23:53:33.941Z,2.63
2018-08-28T23:56:03.204Z,2.90
2018-08-28T23:58:32.546Z,2.70
